This is the latest recevied weather packets stored in our database for station/object AC5JC-1. If no packets are shown the sender has not sent any weather packets the latest 10 day(s).
| Time | Temp. | Humidity | Pressure | Rain* | Wind** | Luminosity | Snow |
|---|---|---|---|---|---|---|---|
| 1777449964 | 17.78° C | 88% | 1013.8 hPa | 0 mm | - | 0 W/m² | - |
| 1777449635 | 17.78° C | 88% | 1013.8 hPa | 0 mm | - | 0 W/m² | - |
| 1777448156 | 17.78° C | 87% | 1013.8 hPa | 0 mm | - | 0 W/m² | - |
| 1777447234 | 17.78° C | 87% | 1013.8 hPa | 0 mm | - | 0 W/m² | - |
| 1777445452 | 18.33° C | 90% | 1013.7 hPa | 0 mm | - | 0 W/m² | - |
| 1777443934 | 18.89° C | 89% | 1014.1 hPa | 0 mm | - | 0 W/m² | - |
| 1777442735 | 18.89° C | 88% | 1014 hPa | 0 mm | - | 0 W/m² | - |
| 1777441581 | 19.44° C | 87% | 1014 hPa | 0 mm | - | 0 W/m² | - |
| 1777439734 | 19.44° C | 89% | 1013.9 hPa | 0 mm | - | 0 W/m² | - |
| 1777437955 | 20° C | 90% | 1013.5 hPa | 0 mm | - | 0 W/m² | - |
| 1777437677 | 20° C | 90% | 1013.7 hPa | 0 mm | - | 0 W/m² | - |
| 1777435835 | 20° C | 91% | 1013.4 hPa | 0 mm | - | 0 W/m² | - |
| 1777435535 | 20.56° C | 91% | 1013.3 hPa | 0 mm | - | 0 W/m² | - |
| 1777434369 | 21.11° C | 93% | 1013.2 hPa | 0 mm | - | 0 W/m² | - |
| 1777433134 | 21.11° C | 95% | 1013.2 hPa | 0 mm | - | 0 W/m² | - |
| 1777432234 | 21.11° C | 96% | 1012.8 hPa | 0 mm | - | 0 W/m² | - |
| 1777427735 | 21.11° C | 99% | 1010.9 hPa | 0 mm | - | 0 W/m² | - |
| 1777425955 | 22.22° C | 99% | 1010.5 hPa | 0 mm | - | 0 W/m² | - |
| 1777425634 | 22.78° C | 99% | 1010.4 hPa | 0 mm | - | 0 W/m² | - |
| 1777425034 | 22.78° C | 99% | 1010.5 hPa | 0 mm | - | 1 W/m² | - |
| 1777421134 | 23.33° C | 99% | 1009.7 hPa | 0 mm | - | 71 W/m² | - |
| 1777419335 | 22.78° C | 99% | 1009.8 hPa | 0 mm | - | 178 W/m² | - |
| 1777416335 | 19.44° C | 99% | 1009.8 hPa | 0.76 mm | - | 65 W/m² | - |
| 1777415514 | 19.44° C | 99% | 1010.2 hPa | 1.27 mm | - | 10 W/m² | - |
| 1777415163 | 19.44° C | 99% | 1009.9 hPa | 1.27 mm | - | 10 W/m² | - |
* Rain latest hour (hover to see other rain measurements)
** Current wind speed in m/s (hover to see current wind gust speed)